sensor_id;sensor_type;location;lat;lon;timestamp;pressure;altitude;pressure_sealevel;temperature;humidity
11676;BME280;5894;42.768;23.404;2022-09-01T00:02:15;95467.59;;;18.83;100.00
11676;BME280;5894;42.768;23.404;2022-09-01T00:04:44;95440.00;;;18.56;100.00
11676;BME280;5894;42.768;23.404;2022-09-01T00:07:12;95454.41;;;18.71;100.00
11676;BME280;5894;42.768;23.404;2022-09-01T00:09:40;95461.63;;;18.70;100.00
11676;BME280;5894;42.768;23.404;2022-09-01T00:12:08;95450.41;;;18.61;100.00
11676;BME280;5894;42.768;23.404;2022-09-01T00:14:37;95451.69;;;18.67;100.00
11676;BME280;5894;42.768;23.404;2022-09-01T00:17:07;95445.97;;;18.69;100.00
11676;BME280;5894;42.768;23.404;2022-09-01T00:19:34;95447.88;;;18.68;100.00
11676;BME280;5894;42.768;23.404;2022-09-01T00:22:10;95442.53;;;18.68;100.00
11676;BME280;5894;42.768;23.404;2022-09-01T00:24:36;95441.78;;;18.68;100.00
11676;BME280;5894;42.768;23.404;2022-09-01T00:27:03;95446.34;;;18.67;100.00
11676;BME280;5894;42.768;23.404;2022-09-01T00:29:30;95454.72;;;18.66;100.00
11676;BME280;5894;42.768;23.404;2022-09-01T00:31:57;95392.69;;;18.34;100.00
11676;BME280;5894;42.768;23.404;2022-09-01T00:34:24;95440.94;;;18.64;100.00
11676;BME280;5894;42.768;23.404;2022-09-01T00:36:51;95450.50;;;18.65;100.00
11676;BME280;5894;42.768;23.404;2022-09-01T00:39:19;95456.09;;;18.60;100.00
11676;BME280;5894;42.768;23.404;2022-09-01T00:41:46;95466.00;;;18.59;100.00
11676;BME280;5894;42.768;23.404;2022-09-01T00:44:17;95466.78;;;18.60;100.00
11676;BME280;5894;42.768;23.404;2022-09-01T00:46:49;95458.69;;;18.56;100.00
11676;BME280;5894;42.768;23.404;2022-09-01T00:49:20;95460.09;;;18.50;100.00
11676;BME280;5894;42.768;23.404;2022-09-01T00:51:50;95472.31;;;18.51;100.00
11676;BME280;5894;42.768;23.404;2022-09-01T00:54:22;95462.72;;;18.47;100.00
11676;BME280;5894;42.768;23.404;2022-09-01T00:56:50;95471.50;;;18.47;100.00
11676;BME280;5894;42.768;23.404;2022-09-01T00:59:19;95459.69;;;18.48;100.00
11676;BME280;5894;42.768;23.404;2022-09-01T01:01:47;95466.63;;;18.53;100.00
11676;BME280;5894;42.768;23.404;2022-09-01T01:04:15;95474.66;;;18.53;100.00
11676;BME280;5894;42.768;23.404;2022-09-01T01:06:44;95463.97;;;18.53;100.00
11676;BME280;5894;42.768;23.404;2022-09-01T01:09:15;95470.44;;;18.52;100.00
11676;BME280;5894;42.768;23.404;2022-09-01T01:11:45;95464.97;;;18.45;100.00
11676;BME280;5894;42.768;23.404;2022-09-01T01:14:14;95470.22;;;18.41;100.00
11676;BME280;5894;42.768;23.404;2022-09-01T01:16:43;95468.25;;;18.38;100.00
11676;BME280;5894;42.768;23.404;2022-09-01T01:19:17;95458.31;;;18.35;100.00
11676;BME280;5894;42.768;23.404;2022-09-01T01:22:00;95458.22;;;18.31;100.00
11676;BME280;5894;42.768;23.404;2022-09-01T01:24:47;95460.00;;;18.24;100.00
11676;BME280;5894;42.768;23.404;2022-09-01T01:27:14;95467.94;;;18.20;100.00
11676;BME280;5894;42.768;23.404;2022-09-01T01:29:42;95459.44;;;18.15;100.00
11676;BME280;5894;42.768;23.404;2022-09-01T01:32:09;95434.66;;;17.95;100.00
11676;BME280;5894;42.768;23.404;2022-09-01T01:34:42;95462.47;;;18.13;100.00
11676;BME280;5894;42.768;23.404;2022-09-01T01:37:10;95465.13;;;18.13;100.00
11676;BME280;5894;42.768;23.404;2022-09-01T01:39:40;95462.03;;;18.11;100.00
11676;BME280;5894;42.768;23.404;2022-09-01T01:42:10;95462.31;;;18.06;100.00
11676;BME280;5894;42.768;23.404;2022-09-01T01:44:38;95468.84;;;18.09;100.00
11676;BME280;5894;42.768;23.404;2022-09-01T01:47:10;95473.41;;;18.08;100.00
11676;BME280;5894;42.768;23.404;2022-09-01T01:49:39;95464.34;;;17.93;100.00
11676;BME280;5894;42.768;23.404;2022-09-01T01:52:09;95484.84;;;18.09;100.00
11676;BME280;5894;42.768;23.404;2022-09-01T01:54:37;95494.75;;;18.08;100.00
11676;BME280;5894;42.768;23.404;2022-09-01T01:57:06;95497.03;;;18.06;100.00
11676;BME280;5894;42.768;23.404;2022-09-01T01:59:34;95486.59;;;18.01;100.00
11676;BME280;5894;42.768;23.404;2022-09-01T02:02:03;95502.75;;;18.08;100.00
11676;BME280;5894;42.768;23.404;2022-09-01T02:04:33;95500.09;;;18.08;100.00
11676;BME280;5894;42.768;23.404;2022-09-01T02:07:08;95515.28;;;18.04;100.00
11676;BME280;5894;42.768;23.404;2022-09-01T02:09:37;95485.63;;;17.90;100.00
11676;BME280;5894;42.768;23.404;2022-09-01T02:12:07;95503.88;;;18.07;100.00
11676;BME280;5894;42.768;23.404;2022-09-01T02:14:36;95501.63;;;18.09;100.00
11676;BME280;5894;42.768;23.404;2022-09-01T02:17:04;95495.03;;;18.03;100.00
11676;BME280;5894;42.768;23.404;2022-09-01T02:19:33;95499.53;;;17.99;100.00
11676;BME280;5894;42.768;23.404;2022-09-01T02:22:03;95499.19;;;18.01;100.00
11676;BME280;5894;42.768;23.404;2022-09-01T02:24:30;95502.81;;;17.92;100.00
11676;BME280;5894;42.768;23.404;2022-09-01T02:26:57;95505.91;;;17.94;100.00
11676;BME280;5894;42.768;23.404;2022-09-01T02:29:27;95468.56;;;17.75;100.00
11676;BME280;5894;42.768;23.404;2022-09-01T02:31:56;95449.09;;;17.59;100.00
11676;BME280;5894;42.768;23.404;2022-09-01T02:34:24;95497.63;;;18.00;100.00
11676;BME280;5894;42.768;23.404;2022-09-01T02:36:55;95496.78;;;17.95;100.00
11676;BME280;5894;42.768;23.404;2022-09-01T02:39:26;95495.94;;;17.91;100.00
11676;BME280;5894;42.768;23.404;2022-09-01T02:41:53;95506.53;;;17.88;100.00
11676;BME280;5894;42.768;23.404;2022-09-01T02:44:24;95498.88;;;17.86;100.00
11676;BME280;5894;42.768;23.404;2022-09-01T02:46:52;95496.63;;;17.88;100.00
11676;BME280;5894;42.768;23.404;2022-09-01T02:49:24;95476.94;;;17.77;100.00
11676;BME280;5894;42.768;23.404;2022-09-01T02:51:56;95492.69;;;17.82;100.00
11676;BME280;5894;42.768;23.404;2022-09-01T02:54:24;95492.19;;;17.77;100.00
11676;BME280;5894;42.768;23.404;2022-09-01T02:56:52;95456.00;;;17.44;100.00
11676;BME280;5894;42.768;23.404;2022-09-01T02:59:22;95488.69;;;17.73;100.00
11676;BME280;5894;42.768;23.404;2022-09-01T03:01:52;95482.22;;;17.74;100.00
11676;BME280;5894;42.768;23.404;2022-09-01T03:04:20;95484.81;;;17.70;100.00
11676;BME280;5894;42.768;23.404;2022-09-01T03:06:48;95480.88;;;17.64;100.00
11676;BME280;5894;42.768;23.404;2022-09-01T03:09:17;95448.88;;;17.48;100.00
11676;BME280;5894;42.768;23.404;2022-09-01T03:11:46;95488.09;;;17.64;100.00
11676;BME280;5894;42.768;23.404;2022-09-01T03:14:15;95482.41;;;17.49;100.00
11676;BME280;5894;42.768;23.404;2022-09-01T03:16:42;95482.31;;;17.46;100.00
11676;BME280;5894;42.768;23.404;2022-09-01T03:19:09;95452.25;;;17.30;100.00
11676;BME280;5894;42.768;23.404;2022-09-01T03:21:39;95477.22;;;17.56;100.00
11676;BME280;5894;42.768;23.404;2022-09-01T03:24:12;95488.78;;;17.45;100.00
11676;BME280;5894;42.768;23.404;2022-09-01T03:26:40;95480.44;;;17.46;100.00
11676;BME280;5894;42.768;23.404;2022-09-01T03:29:07;95477.63;;;17.39;100.00
11676;BME280;5894;42.768;23.404;2022-09-01T03:31:35;95462.50;;;17.28;100.00
11676;BME280;5894;42.768;23.404;2022-09-01T03:34:03;95492.16;;;17.42;100.00
11676;BME280;5894;42.768;23.404;2022-09-01T03:36:35;95491.72;;;17.40;100.00
11676;BME280;5894;42.768;23.404;2022-09-01T03:39:03;95491.72;;;17.40;100.00
11676;BME280;5894;42.768;23.404;2022-09-01T03:41:32;95484.75;;;17.35;100.00
11676;BME280;5894;42.768;23.404;2022-09-01T03:44:02;95495.50;;;17.39;100.00
11676;BME280;5894;42.768;23.404;2022-09-01T03:46:31;95492.94;;;17.42;100.00
11676;BME280;5894;42.768;23.404;2022-09-01T03:48:58;95492.16;;;17.42;100.00
11676;BME280;5894;42.768;23.404;2022-09-01T03:51:28;95497.38;;;17.38;100.00
11676;BME280;5894;42.768;23.404;2022-09-01T03:53:58;95494.28;;;17.36;100.00
11676;BME280;5894;42.768;23.404;2022-09-01T03:56:27;95496.13;;;17.32;100.00
11676;BME280;5894;42.768;23.404;2022-09-01T03:58:58;95494.91;;;17.30;100.00
11676;BME280;5894;42.768;23.404;2022-09-01T04:01:25;95461.50;;;17.01;100.00
11676;BME280;5894;42.768;23.404;2022-09-01T04:03:53;95481.44;;;17.22;100.00
11676;BME280;5894;42.768;23.404;2022-09-01T04:06:24;95496.81;;;17.29;100.00
11676;BME280;5894;42.768;23.404;2022-09-01T04:08:51;95498.34;;;17.30;100.00
11676;BME280;5894;42.768;23.404;2022-09-01T04:11:29;95500.25;;;17.30;100.00
11676;BME280;5894;42.768;23.404;2022-09-01T04:13:58;95504.03;;;17.29;100.00
11676;BME280;5894;42.768;23.404;2022-09-01T04:16:27;95497.28;;;17.35;100.00
11676;BME280;5894;42.768;23.404;2022-09-01T04:19:13;95500.41;;;17.37;100.00
11676;BME280;5894;42.768;23.404;2022-09-01T04:21:46;95487.84;;;17.37;100.00
11676;BME280;5894;42.768;23.404;2022-09-01T04:24:22;95490.16;;;17.39;100.00
11676;BME280;5894;42.768;23.404;2022-09-01T04:26:53;95492.50;;;17.40;100.00
11676;BME280;5894;42.768;23.404;2022-09-01T04:29:22;95495.25;;;17.44;100.00
11676;BME280;5894;42.768;23.404;2022-09-01T04:31:52;95488.78;;;17.45;100.00
11676;BME280;5894;42.768;23.404;2022-09-01T04:34:20;95490.41;;;17.49;100.00
11676;BME280;5894;42.768;23.404;2022-09-01T04:36:47;95481.28;;;17.50;100.00
11676;BME280;5894;42.768;23.404;2022-09-01T04:39:20;95484.31;;;17.49;100.00
11676;BME280;5894;42.768;23.404;2022-09-01T04:41:47;95489.78;;;17.56;100.00
11676;BME280;5894;42.768;23.404;2022-09-01T04:44:15;95497.09;;;17.59;100.00
11676;BME280;5894;42.768;23.404;2022-09-01T04:46:46;95502.56;;;17.63;100.00
11676;BME280;5894;42.768;23.404;2022-09-01T04:49:18;95495.97;;;17.60;100.00
11676;BME280;5894;42.768;23.404;2022-09-01T04:51:49;95490.41;;;17.65;100.00
11676;BME280;5894;42.768;23.404;2022-09-01T04:54:16;95492.31;;;17.65;100.00
11676;BME280;5894;42.768;23.404;2022-09-01T04:56:47;95485.31;;;17.60;100.00
11676;BME280;5894;42.768;23.404;2022-09-01T04:59:17;95493.25;;;17.72;100.00
11676;BME280;5894;42.768;23.404;2022-09-01T05:01:50;95463.56;;;17.58;100.00
11676;BME280;5894;42.768;23.404;2022-09-01T05:04:22;95482.22;;;17.74;100.00
11676;BME280;5894;42.768;23.404;2022-09-01T05:06:51;95493.38;;;17.79;100.00
11676;BME280;5894;42.768;23.404;2022-09-01T05:09:21;95492.41;;;17.87;100.00
11676;BME280;5894;42.768;23.404;2022-09-01T05:11:53;95477.50;;;17.67;100.00
11676;BME280;5894;42.768;23.404;2022-09-01T05:14:24;95497.34;;;17.85;100.00
11676;BME280;5894;42.768;23.404;2022-09-01T05:16:57;95493.34;;;17.95;100.00
11676;BME280;5894;42.768;23.404;2022-09-01T05:19:30;95496.41;;;17.97;100.00
11676;BME280;5894;42.768;23.404;2022-09-01T05:21:59;95494.97;;;18.00;100.00
11676;BME280;5894;42.768;23.404;2022-09-01T05:24:27;95488.16;;;18.02;100.00
11676;BME280;5894;42.768;23.404;2022-09-01T05:26:57;95470.81;;;17.92;100.00
11676;BME280;5894;42.768;23.404;2022-09-01T05:29:26;95491.38;;;18.11;100.00
11676;BME280;5894;42.768;23.404;2022-09-01T05:31:56;95485.34;;;18.14;100.00
11676;BME280;5894;42.768;23.404;2022-09-01T05:34:25;95496.09;;;18.18;100.00
11676;BME280;5894;42.768;23.404;2022-09-01T05:36:57;95492.03;;;18.24;100.00
11676;BME280;5894;42.768;23.404;2022-09-01T05:39:26;95491.59;;;18.22;100.00
11676;BME280;5894;42.768;23.404;2022-09-01T05:41:54;95483.25;;;18.23;100.00
11676;BME280;5894;42.768;23.404;2022-09-01T05:44:21;95477.69;;;18.32;100.00
11676;BME280;5894;42.768;23.404;2022-09-01T05:46:51;95489.16;;;18.32;100.00
11676;BME280;5894;42.768;23.404;2022-09-01T05:49:20;95484.00;;;18.43;100.00
11676;BME280;5894;42.768;23.404;2022-09-01T05:51:49;95483.66;;;18.45;100.00
11676;BME280;5894;42.768;23.404;2022-09-01T05:54:23;95491.88;;;18.55;100.00
11676;BME280;5894;42.768;23.404;2022-09-01T05:56:53;95487.16;;;18.49;100.00
11676;BME280;5894;42.768;23.404;2022-09-01T05:59:33;95495.13;;;18.45;100.00
11676;BME280;5894;42.768;23.404;2022-09-01T06:02:06;95464.06;;;18.37;100.00
11676;BME280;5894;42.768;23.404;2022-09-01T06:04:36;95486.75;;;18.66;100.00
11676;BME280;5894;42.768;23.404;2022-09-01T06:07:10;95483.59;;;18.60;100.00
11676;BME280;5894;42.768;23.404;2022-09-01T06:09:44;95487.66;;;18.74;100.00
11676;BME280;5894;42.768;23.404;2022-09-01T06:12:12;95480.53;;;18.81;100.00
11676;BME280;5894;42.768;23.404;2022-09-01T06:14:44;95452.50;;;18.52;100.00
11676;BME280;5894;42.768;23.404;2022-09-01T06:17:14;95469.06;;;18.81;100.00
11676;BME280;5894;42.768;23.404;2022-09-01T06:19:42;95471.16;;;18.91;100.00
11676;BME280;5894;42.768;23.404;2022-09-01T06:22:10;95469.66;;;18.93;100.00
11676;BME280;5894;42.768;23.404;2022-09-01T06:24:37;95469.00;;;19.00;100.00
11676;BME280;5894;42.768;23.404;2022-09-01T06:27:04;95481.97;;;18.98;100.00
11676;BME280;5894;42.768;23.404;2022-09-01T06:29:35;95473.34;;;19.08;100.00
11676;BME280;5894;42.768;23.404;2022-09-01T06:32:04;95480.00;;;19.18;100.00
11676;BME280;5894;42.768;23.404;2022-09-01T06:34:35;95480.81;;;19.22;100.00
11676;BME280;5894;42.768;23.404;2022-09-01T06:37:04;95486.53;;;19.20;100.00
11676;BME280;5894;42.768;23.404;2022-09-01T06:39:31;95486.94;;;19.22;100.00
11676;BME280;5894;42.768;23.404;2022-09-01T06:41:59;95475.94;;;19.27;100.00
11676;BME280;5894;42.768;23.404;2022-09-01T06:44:35;95475.69;;;19.36;100.00
11676;BME280;5894;42.768;23.404;2022-09-01T06:47:06;95470.34;;;19.36;100.00
11676;BME280;5894;42.768;23.404;2022-09-01T06:49:34;95471.19;;;19.40;100.00
11676;BME280;5894;42.768;23.404;2022-09-01T06:52:06;95470.09;;;19.44;100.00
11676;BME280;5894;42.768;23.404;2022-09-01T06:54:33;95473.53;;;19.45;100.00
11676;BME280;5894;42.768;23.404;2022-09-01T06:57:04;95470.44;;;19.43;100.00
11676;BME280;5894;42.768;23.404;2022-09-01T06:59:31;95469.47;;;19.51;100.00
11676;BME280;5894;42.768;23.404;2022-09-01T07:02:00;95474.50;;;19.56;100.00
11676;BME280;5894;42.768;23.404;2022-09-01T07:04:44;95472.41;;;19.69;100.00
11676;BME280;5894;42.768;23.404;2022-09-01T07:07:15;95472.44;;;19.72;100.00
11676;BME280;5894;42.768;23.404;2022-09-01T07:10:00;95475.16;;;19.76;100.00
11676;BME280;5894;42.768;23.404;2022-09-01T07:12:37;95469.91;;;19.83;100.00
11676;BME280;5894;42.768;23.404;2022-09-01T07:15:07;95476.50;;;19.89;100.00
11676;BME280;5894;42.768;23.404;2022-09-01T07:17:34;95471.06;;;19.86;100.00
11676;BME280;5894;42.768;23.404;2022-09-01T07:20:01;95466.19;;;19.91;100.00
11676;BME280;5894;42.768;23.404;2022-09-01T07:22:29;95470.50;;;19.99;100.00
11676;BME280;5894;42.768;23.404;2022-09-01T07:24:56;95471.41;;;20.10;100.00
11676;BME280;5894;42.768;23.404;2022-09-01T07:27:34;95474.88;;;20.14;100.00
11676;BME280;5894;42.768;23.404;2022-09-01T07:30:02;95476.16;;;20.24;100.00
11676;BME280;5894;42.768;23.404;2022-09-01T07:32:29;95461.88;;;20.13;100.00
11676;BME280;5894;42.768;23.404;2022-09-01T07:34:56;95469.03;;;20.35;100.00
11676;BME280;5894;42.768;23.404;2022-09-01T07:37:23;95476.88;;;20.51;100.00
11676;BME280;5894;42.768;23.404;2022-09-01T07:39:53;95433.63;;;20.19;100.00
11676;BME280;5894;42.768;23.404;2022-09-01T07:42:47;95472.22;;;20.44;100.00
11676;BME280;5894;42.768;23.404;2022-09-01T07:45:23;95448.75;;;20.34;100.00
11676;BME280;5894;42.768;23.404;2022-09-01T07:47:59;95458.00;;;20.40;100.00
11676;BME280;5894;42.768;23.404;2022-09-01T07:50:32;95480.88;;;20.68;100.00
11676;BME280;5894;42.768;23.404;2022-09-01T07:52:59;95475.22;;;20.76;100.00
11676;BME280;5894;42.768;23.404;2022-09-01T07:55:27;95474.47;;;20.79;100.00
11676;BME280;5894;42.768;23.404;2022-09-01T07:57:57;95482.22;;;20.88;100.00
11676;BME280;5894;42.768;23.404;2022-09-01T08:00:26;95481.94;;;20.97;100.00
11676;BME280;5894;42.768;23.404;2022-09-01T08:02:58;95480.44;;;21.03;100.00
11676;BME280;5894;42.768;23.404;2022-09-01T08:05:25;95480.44;;;21.03;100.00
11676;BME280;5894;42.768;23.404;2022-09-01T08:07:54;95486.63;;;21.07;100.00
11676;BME280;5894;42.768;23.404;2022-09-01T08:10:28;95486.97;;;21.05;100.00
11676;BME280;5894;42.768;23.404;2022-09-01T08:12:56;95476.56;;;20.97;100.00
11676;BME280;5894;42.768;23.404;2022-09-01T08:15:23;95476.66;;;21.07;100.00
11676;BME280;5894;42.768;23.404;2022-09-01T08:17:50;95485.09;;;21.09;100.00
11676;BME280;5894;42.768;23.404;2022-09-01T08:20:18;95473.25;;;21.14;100.00
11676;BME280;5894;42.768;23.404;2022-09-01T08:22:56;95470.22;;;21.15;100.00
11676;BME280;5894;42.768;23.404;2022-09-01T08:25:35;95466.06;;;21.21;100.00
11676;BME280;5894;42.768;23.404;2022-09-01T08:28:04;95401.75;;;20.81;100.00
11676;BME280;5894;42.768;23.404;2022-09-01T08:30:32;95472.28;;;21.33;100.00
11676;BME280;5894;42.768;23.404;2022-09-01T08:33:00;95464.66;;;21.35;100.00
11676;BME280;5894;42.768;23.404;2022-09-01T08:35:28;95460.44;;;21.37;100.00
11676;BME280;5894;42.768;23.404;2022-09-01T08:37:56;95459.34;;;21.45;100.00
11676;BME280;5894;42.768;23.404;2022-09-01T08:40:25;95456.72;;;21.49;100.00
11676;BME280;5894;42.768;23.404;2022-09-01T08:43:00;95459.44;;;21.56;100.00
11676;BME280;5894;42.768;23.404;2022-09-01T08:45:32;95455.66;;;21.68;100.00
11676;BME280;5894;42.768;23.404;2022-09-01T08:48:12;95452.22;;;21.67;100.00
11676;BME280;5894;42.768;23.404;2022-09-01T08:50:41;95450.75;;;21.84;100.00
11676;BME280;5894;42.768;23.404;2022-09-01T08:53:21;95408.13;;;21.68;100.00
11676;BME280;5894;42.768;23.404;2022-09-01T08:55:54;95440.53;;;22.04;100.00
11676;BME280;5894;42.768;23.404;2022-09-01T08:58:23;95442.09;;;22.12;100.00
11676;BME280;5894;42.768;23.404;2022-09-01T09:01:17;95382.13;;;21.86;100.00
11676;BME280;5894;42.768;23.404;2022-09-01T09:04:03;95432.53;;;22.25;100.00
11676;BME280;5894;42.768;23.404;2022-09-01T09:06:42;95431.81;;;22.35;100.00
11676;BME280;5894;42.768;23.404;2022-09-01T09:09:12;95424.16;;;22.41;100.00
11676;BME280;5894;42.768;23.404;2022-09-01T09:12:05;95421.47;;;22.44;100.00
11676;BME280;5894;42.768;23.404;2022-09-01T09:15:07;95415.75;;;22.56;100.00
11676;BME280;5894;42.768;23.404;2022-09-01T09:17:38;95393.09;;;22.50;100.00
11676;BME280;5894;42.768;23.404;2022-09-01T09:20:06;95409.63;;;22.74;100.00
11676;BME280;5894;42.768;23.404;2022-09-01T09:22:33;95414.66;;;22.82;100.00
11676;BME280;5894;42.768;23.404;2022-09-01T09:25:03;95417.34;;;22.89;100.00
11676;BME280;5894;42.768;23.404;2022-09-01T09:27:34;95406.22;;;22.98;100.00
11676;BME280;5894;42.768;23.404;2022-09-01T09:30:05;95409.69;;;23.02;100.00
11676;BME280;5894;42.768;23.404;2022-09-01T09:32:45;95414.66;;;23.11;100.00
11676;BME280;5894;42.768;23.404;2022-09-01T09:35:23;95398.13;;;23.16;100.00
11676;BME280;5894;42.768;23.404;2022-09-01T09:37:52;95399.69;;;23.24;100.00
11676;BME280;5894;42.768;23.404;2022-09-01T09:40:20;95404.25;;;23.30;100.00
11676;BME280;5894;42.768;23.404;2022-09-01T09:43:03;95395.78;;;23.39;100.00
11676;BME280;5894;42.768;23.404;2022-09-01T09:45:35;95396.53;;;23.47;100.00
11676;BME280;5894;42.768;23.404;2022-09-01T09:48:08;95385.03;;;23.50;100.00
11676;BME280;5894;42.768;23.404;2022-09-01T09:50:37;95388.13;;;23.55;100.00
11676;BME280;5894;42.768;23.404;2022-09-01T09:53:13;95383.84;;;23.61;100.00
11676;BME280;5894;42.768;23.404;2022-09-01T09:55:56;95380.75;;;23.73;100.00
11676;BME280;5894;42.768;23.404;2022-09-01T09:58:26;95384.94;;;23.82;100.00
11676;BME280;5894;42.768;23.404;2022-09-01T10:01:01;95385.72;;;23.82;100.00
11676;BME280;5894;42.768;23.404;2022-09-01T10:03:38;95373.78;;;23.79;100.00
11676;BME280;5894;42.768;23.404;2022-09-01T10:06:10;95382.97;;;23.93;100.00
11676;BME280;5894;42.768;23.404;2022-09-01T10:08:40;95382.16;;;23.99;100.00
11676;BME280;5894;42.768;23.404;2022-09-01T10:11:11;95379.47;;;24.03;100.00
11676;BME280;5894;42.768;23.404;2022-09-01T10:13:51;95378.31;;;24.07;100.00
11676;BME280;5894;42.768;23.404;2022-09-01T10:16:24;95379.41;;;24.13;100.00
11676;BME280;5894;42.768;23.404;2022-09-01T10:18:53;95357.09;;;24.17;100.00
11676;BME280;5894;42.768;23.404;2022-09-01T10:21:30;95339.44;;;24.05;100.00
11676;BME280;5894;42.768;23.404;2022-09-01T10:23:59;95330.97;;;24.06;100.00
11676;BME280;5894;42.768;23.404;2022-09-01T10:26:31;95363.19;;;24.31;100.00
11676;BME280;5894;42.768;23.404;2022-09-01T10:29:05;95363.13;;;24.42;100.00
11676;BME280;5894;42.768;23.404;2022-09-01T10:31:34;95362.72;;;24.43;100.00
11676;BME280;5894;42.768;23.404;2022-09-01T10:34:04;95352.31;;;24.49;100.00
11676;BME280;5894;42.768;23.404;2022-09-01T10:36:32;95356.53;;;24.50;100.00
11676;BME280;5894;42.768;23.404;2022-09-01T10:39:00;95359.97;;;24.54;98.24
11676;BME280;5894;42.768;23.404;2022-09-01T10:41:45;95362.19;;;24.63;92.63
11676;BME280;5894;42.768;23.404;2022-09-01T10:44:19;95356.44;;;24.61;91.30
11676;BME280;5894;42.768;23.404;2022-09-01T10:46:49;95327.59;;;24.54;100.00
11676;BME280;5894;42.768;23.404;2022-09-01T10:52:52;95351.69;;;24.79;97.04
11676;BME280;5894;42.768;23.404;2022-09-01T10:55:23;95344.69;;;24.85;95.60
11676;BME280;5894;42.768;23.404;2022-09-01T10:58:07;95348.91;;;24.90;94.50
11676;BME280;5894;42.768;23.404;2022-09-01T11:00:47;95347.72;;;24.98;91.01
11676;BME280;5894;42.768;23.404;2022-09-01T11:03:48;95344.19;;;25.04;88.95
11676;BME280;5894;42.768;23.404;2022-09-01T11:06:53;95341.78;;;25.13;90.80
11676;BME280;5894;42.768;23.404;2022-09-01T11:09:24;95326.72;;;25.16;95.15
11676;BME280;5894;42.768;23.404;2022-09-01T11:12:25;95329.34;;;25.23;92.58
11676;BME280;5894;42.768;23.404;2022-09-01T11:14:57;95326.97;;;25.32;91.30
11676;BME280;5894;42.768;23.404;2022-09-01T11:17:26;95278.22;;;25.12;90.63
11676;BME280;5894;42.768;23.404;2022-09-01T11:19:59;95321.78;;;25.45;89.76
11676;BME280;5894;42.768;23.404;2022-09-01T11:22:31;95330.63;;;25.49;89.60
11676;BME280;5894;42.768;23.404;2022-09-01T11:30:52;95305.84;;;25.61;87.58
11676;BME280;5894;42.768;23.404;2022-09-01T11:33:41;95298.78;;;25.71;84.47
11676;BME280;5894;42.768;23.404;2022-09-01T11:36:18;95304.44;;;25.80;90.41
11676;BME280;5894;42.768;23.404;2022-09-01T11:38:49;95298.16;;;25.86;83.21
11676;BME280;5894;42.768;23.404;2022-09-01T11:41:21;95295.75;;;25.95;91.73
11676;BME280;5894;42.768;23.404;2022-09-01T11:43:55;95290.94;;;26.07;83.54
11676;BME280;5894;42.768;23.404;2022-09-01T11:46:28;95249.50;;;25.90;82.33
11676;BME280;5894;42.768;23.404;2022-09-01T11:49:00;95246.69;;;25.97;82.91
11676;BME280;5894;42.768;23.404;2022-09-01T11:51:39;95265.25;;;26.22;87.52
11676;BME280;5894;42.768;23.404;2022-09-01T11:54:09;95260.91;;;26.31;84.40
11676;BME280;5894;42.768;23.404;2022-09-01T11:56:36;95268.13;;;26.38;83.83
11676;BME280;5894;42.768;23.404;2022-09-01T11:59:03;95261.91;;;26.41;90.40
11676;BME280;5894;42.768;23.404;2022-09-01T12:01:32;95261.38;;;26.50;90.17
11676;BME280;5894;42.768;23.404;2022-09-01T12:04:18;95258.13;;;26.58;91.43
11676;BME280;5894;42.768;23.404;2022-09-01T12:06:53;95262.69;;;26.65;90.67
11676;BME280;5894;42.768;23.404;2022-09-01T12:09:21;95271.47;;;26.69;80.06
11676;BME280;5894;42.768;23.404;2022-09-01T12:11:48;95270.22;;;26.77;74.81
11676;BME280;5894;42.768;23.404;2022-09-01T12:14:20;95260.06;;;26.81;78.68
11676;BME280;5894;42.768;23.404;2022-09-01T12:16:56;95253.72;;;26.91;84.85
11676;BME280;5894;42.768;23.404;2022-09-01T12:19:25;95259.81;;;26.99;78.68
11676;BME280;5894;42.768;23.404;2022-09-01T12:21:59;95255.84;;;27.03;71.65
11676;BME280;5894;42.768;23.404;2022-09-01T12:24:28;95245.31;;;27.09;79.10
11676;BME280;5894;42.768;23.404;2022-09-01T12:26:57;95247.66;;;27.07;77.71
11676;BME280;5894;42.768;23.404;2022-09-01T12:29:26;95238.03;;;27.06;80.80
11676;BME280;5894;42.768;23.404;2022-09-01T12:31:53;95246.69;;;27.17;78.17
11676;BME280;5894;42.768;23.404;2022-09-01T12:34:26;95244.25;;;27.23;84.35
11676;BME280;5894;42.768;23.404;2022-09-01T12:37:07;95245.53;;;27.38;81.69
11676;BME280;5894;42.768;23.404;2022-09-01T12:39:35;95237.66;;;27.44;80.60
11676;BME280;5894;42.768;23.404;2022-09-01T12:42:06;95244.47;;;27.52;79.47
11676;BME280;5894;42.768;23.404;2022-09-01T12:44:43;95242.06;;;27.57;78.78
11676;BME280;5894;42.768;23.404;2022-09-01T12:47:13;95237.00;;;27.59;77.93
11676;BME280;5894;42.768;23.404;2022-09-01T12:50:00;95233.38;;;27.66;76.54
11676;BME280;5894;42.768;23.404;2022-09-01T12:52:30;95238.31;;;27.71;79.00
11676;BME280;5894;42.768;23.404;2022-09-01T12:55:11;95246.28;;;27.78;83.45
11676;BME280;5894;42.768;23.404;2022-09-01T12:57:45;95242.28;;;27.83;81.66
11676;BME280;5894;42.768;23.404;2022-09-01T13:00:18;95238.75;;;27.86;77.67
11676;BME280;5894;42.768;23.404;2022-09-01T13:02:46;95231.22;;;27.93;83.52
11676;BME280;5894;42.768;23.404;2022-09-01T13:05:26;95231.75;;;28.04;82.53
11676;BME280;5894;42.768;23.404;2022-09-01T13:07:58;95235.50;;;28.10;75.80
11676;BME280;5894;42.768;23.404;2022-09-01T13:10:29;95202.50;;;27.96;72.25
11676;BME280;5894;42.768;23.404;2022-09-01T13:12:57;95224.44;;;28.21;74.76
11676;BME280;5894;42.768;23.404;2022-09-01T13:15:24;95230.97;;;28.24;74.03
11676;BME280;5894;42.768;23.404;2022-09-01T13:17:52;95214.00;;;28.20;70.41
11676;BME280;5894;42.768;23.404;2022-09-01T13:20:19;95209.81;;;28.15;71.32
11676;BME280;5894;42.768;23.404;2022-09-01T13:22:46;95213.94;;;28.23;70.25
11676;BME280;5894;42.768;23.404;2022-09-01T13:25:16;95209.59;;;28.26;73.15